sensor_id;sensor_type;location;lat;lon;timestamp;P1;durP1;ratioP1;P2;durP2;ratioP2
1402;SDS011;696;48.546;9.896;2024-02-15T00:00:03;0.20;;;0.20;;
1402;SDS011;696;48.546;9.896;2024-02-15T00:02:28;0.20;;;0.20;;
1402;SDS011;696;48.546;9.896;2024-02-15T00:04:54;0.20;;;0.20;;
1402;SDS011;696;48.546;9.896;2024-02-15T00:07:20;0.30;;;0.30;;
1402;SDS011;696;48.546;9.896;2024-02-15T00:09:48;0.20;;;0.20;;
1402;SDS011;696;48.546;9.896;2024-02-15T00:12:13;0.22;;;0.22;;
1402;SDS011;696;48.546;9.896;2024-02-15T00:14:39;0.20;;;0.20;;
1402;SDS011;696;48.546;9.896;2024-02-15T00:17:04;0.20;;;0.20;;
1402;SDS011;696;48.546;9.896;2024-02-15T00:19:30;0.20;;;0.20;;
1402;SDS011;696;48.546;9.896;2024-02-15T00:21:55;0.20;;;0.20;;
1402;SDS011;696;48.546;9.896;2024-02-15T00:24:21;0.20;;;0.20;;
1402;SDS011;696;48.546;9.896;2024-02-15T00:26:47;0.20;;;0.20;;
1402;SDS011;696;48.546;9.896;2024-02-15T00:29:13;0.20;;;0.20;;
1402;SDS011;696;48.546;9.896;2024-02-15T00:31:38;0.20;;;0.20;;
1402;SDS011;696;48.546;9.896;2024-02-15T00:34:03;0.28;;;0.28;;
1402;SDS011;696;48.546;9.896;2024-02-15T00:36:29;0.20;;;0.20;;
1402;SDS011;696;48.546;9.896;2024-02-15T00:38:54;0.20;;;0.20;;
1402;SDS011;696;48.546;9.896;2024-02-15T00:41:20;0.20;;;0.20;;
1402;SDS011;696;48.546;9.896;2024-02-15T00:43:46;0.20;;;0.20;;
1402;SDS011;696;48.546;9.896;2024-02-15T00:46:12;0.20;;;0.20;;
1402;SDS011;696;48.546;9.896;2024-02-15T00:48:37;0.20;;;0.20;;
1402;SDS011;696;48.546;9.896;2024-02-15T00:51:02;0.22;;;0.22;;
1402;SDS011;696;48.546;9.896;2024-02-15T00:53:28;0.20;;;0.20;;
1402;SDS011;696;48.546;9.896;2024-02-15T00:55:53;0.30;;;0.30;;
1402;SDS011;696;48.546;9.896;2024-02-15T00:58:19;0.20;;;0.20;;
1402;SDS011;696;48.546;9.896;2024-02-15T01:00:44;0.30;;;0.30;;
1402;SDS011;696;48.546;9.896;2024-02-15T01:03:09;0.30;;;0.30;;
1402;SDS011;696;48.546;9.896;2024-02-15T01:05:35;0.20;;;0.20;;
1402;SDS011;696;48.546;9.896;2024-02-15T01:08:00;0.20;;;0.20;;
1402;SDS011;696;48.546;9.896;2024-02-15T01:10:25;0.25;;;0.25;;
1402;SDS011;696;48.546;9.896;2024-02-15T01:12:51;0.30;;;0.30;;
1402;SDS011;696;48.546;9.896;2024-02-15T01:15:17;0.20;;;0.20;;
1402;SDS011;696;48.546;9.896;2024-02-15T01:17:44;0.20;;;0.20;;
1402;SDS011;696;48.546;9.896;2024-02-15T01:20:10;0.25;;;0.25;;
1402;SDS011;696;48.546;9.896;2024-02-15T01:22:36;0.20;;;0.20;;
1402;SDS011;696;48.546;9.896;2024-02-15T01:25:01;0.20;;;0.20;;
1402;SDS011;696;48.546;9.896;2024-02-15T01:27:27;0.10;;;0.10;;
1402;SDS011;696;48.546;9.896;2024-02-15T01:29:58;0.20;;;0.20;;
1402;SDS011;696;48.546;9.896;2024-02-15T01:32:23;0.20;;;0.20;;
1402;SDS011;696;48.546;9.896;2024-02-15T01:34:50;0.20;;;0.20;;
1402;SDS011;696;48.546;9.896;2024-02-15T01:37:18;0.20;;;0.20;;
1402;SDS011;696;48.546;9.896;2024-02-15T01:39:45;0.20;;;0.20;;
1402;SDS011;696;48.546;9.896;2024-02-15T01:42:10;0.20;;;0.20;;
1402;SDS011;696;48.546;9.896;2024-02-15T01:44:36;0.22;;;0.22;;
1402;SDS011;696;48.546;9.896;2024-02-15T01:47:01;0.20;;;0.20;;
1402;SDS011;696;48.546;9.896;2024-02-15T01:49:28;0.20;;;0.20;;
1402;SDS011;696;48.546;9.896;2024-02-15T01:51:53;0.20;;;0.20;;
1402;SDS011;696;48.546;9.896;2024-02-15T01:54:21;0.20;;;0.20;;
1402;SDS011;696;48.546;9.896;2024-02-15T01:56:47;0.20;;;0.20;;
1402;SDS011;696;48.546;9.896;2024-02-15T01:59:14;0.30;;;0.30;;
1402;SDS011;696;48.546;9.896;2024-02-15T02:01:40;0.20;;;0.20;;
1402;SDS011;696;48.546;9.896;2024-02-15T02:04:07;0.28;;;0.28;;
1402;SDS011;696;48.546;9.896;2024-02-15T02:06:33;0.20;;;0.20;;
1402;SDS011;696;48.546;9.896;2024-02-15T02:08:58;0.28;;;0.28;;
1402;SDS011;696;48.546;9.896;2024-02-15T02:11:23;0.20;;;0.20;;
1402;SDS011;696;48.546;9.896;2024-02-15T02:13:49;0.20;;;0.20;;
1402;SDS011;696;48.546;9.896;2024-02-15T02:16:29;0.30;;;0.30;;
1402;SDS011;696;48.546;9.896;2024-02-15T02:19:00;0.30;;;0.30;;
1402;SDS011;696;48.546;9.896;2024-02-15T02:21:25;0.30;;;0.30;;
1402;SDS011;696;48.546;9.896;2024-02-15T02:23:55;0.20;;;0.20;;
1402;SDS011;696;48.546;9.896;2024-02-15T02:26:21;0.20;;;0.20;;
1402;SDS011;696;48.546;9.896;2024-02-15T02:28:47;0.30;;;0.30;;
1402;SDS011;696;48.546;9.896;2024-02-15T02:31:13;0.20;;;0.20;;
1402;SDS011;696;48.546;9.896;2024-02-15T02:33:39;0.20;;;0.20;;
1402;SDS011;696;48.546;9.896;2024-02-15T02:36:06;0.20;;;0.20;;
1402;SDS011;696;48.546;9.896;2024-02-15T02:38:37;0.20;;;0.20;;
1402;SDS011;696;48.546;9.896;2024-02-15T02:41:06;0.20;;;0.20;;
1402;SDS011;696;48.546;9.896;2024-02-15T02:43:31;0.20;;;0.20;;
1402;SDS011;696;48.546;9.896;2024-02-15T02:45:56;0.20;;;0.20;;
1402;SDS011;696;48.546;9.896;2024-02-15T02:48:22;0.20;;;0.20;;
1402;SDS011;696;48.546;9.896;2024-02-15T02:50:50;0.20;;;0.20;;
1402;SDS011;696;48.546;9.896;2024-02-15T02:53:15;0.20;;;0.20;;
1402;SDS011;696;48.546;9.896;2024-02-15T02:55:41;0.30;;;0.30;;
1402;SDS011;696;48.546;9.896;2024-02-15T02:58:07;0.20;;;0.20;;
1402;SDS011;696;48.546;9.896;2024-02-15T03:00:33;0.30;;;0.30;;
1402;SDS011;696;48.546;9.896;2024-02-15T03:02:58;0.30;;;0.30;;
1402;SDS011;696;48.546;9.896;2024-02-15T03:05:24;0.20;;;0.20;;
1402;SDS011;696;48.546;9.896;2024-02-15T03:07:50;0.30;;;0.30;;
1402;SDS011;696;48.546;9.896;2024-02-15T03:10:16;0.25;;;0.25;;
1402;SDS011;696;48.546;9.896;2024-02-15T03:12:43;0.25;;;0.25;;
1402;SDS011;696;48.546;9.896;2024-02-15T03:15:11;0.20;;;0.20;;
1402;SDS011;696;48.546;9.896;2024-02-15T03:17:38;0.30;;;0.30;;
1402;SDS011;696;48.546;9.896;2024-02-15T03:20:11;0.22;;;0.22;;
1402;SDS011;696;48.546;9.896;2024-02-15T03:22:45;0.30;;;0.30;;
1402;SDS011;696;48.546;9.896;2024-02-15T03:25:10;0.20;;;0.20;;
1402;SDS011;696;48.546;9.896;2024-02-15T03:27:35;0.30;;;0.30;;
1402;SDS011;696;48.546;9.896;2024-02-15T03:30:02;0.22;;;0.22;;
1402;SDS011;696;48.546;9.896;2024-02-15T03:32:29;0.30;;;0.30;;
1402;SDS011;696;48.546;9.896;2024-02-15T03:34:54;0.20;;;0.20;;
1402;SDS011;696;48.546;9.896;2024-02-15T03:37:20;0.20;;;0.20;;
1402;SDS011;696;48.546;9.896;2024-02-15T03:39:45;0.30;;;0.30;;
1402;SDS011;696;48.546;9.896;2024-02-15T03:42:11;0.30;;;0.30;;
1402;SDS011;696;48.546;9.896;2024-02-15T03:44:36;0.30;;;0.30;;
1402;SDS011;696;48.546;9.896;2024-02-15T03:47:03;0.30;;;0.30;;
1402;SDS011;696;48.546;9.896;2024-02-15T03:49:32;0.20;;;0.20;;
1402;SDS011;696;48.546;9.896;2024-02-15T03:51:57;0.30;;;0.30;;
1402;SDS011;696;48.546;9.896;2024-02-15T03:54:26;0.20;;;0.20;;
1402;SDS011;696;48.546;9.896;2024-02-15T03:56:51;0.30;;;0.30;;
1402;SDS011;696;48.546;9.896;2024-02-15T03:59:20;0.25;;;0.25;;
1402;SDS011;696;48.546;9.896;2024-02-15T04:01:47;0.30;;;0.30;;
1402;SDS011;696;48.546;9.896;2024-02-15T04:04:12;0.30;;;0.30;;
1402;SDS011;696;48.546;9.896;2024-02-15T04:06:38;0.20;;;0.20;;
1402;SDS011;696;48.546;9.896;2024-02-15T04:09:06;0.30;;;0.30;;
1402;SDS011;696;48.546;9.896;2024-02-15T04:11:32;0.30;;;0.30;;
1402;SDS011;696;48.546;9.896;2024-02-15T04:13:58;0.30;;;0.30;;
1402;SDS011;696;48.546;9.896;2024-02-15T04:16:23;0.20;;;0.20;;
1402;SDS011;696;48.546;9.896;2024-02-15T04:18:50;0.20;;;0.20;;
1402;SDS011;696;48.546;9.896;2024-02-15T04:21:15;0.20;;;0.20;;
1402;SDS011;696;48.546;9.896;2024-02-15T04:23:44;0.30;;;0.30;;
1402;SDS011;696;48.546;9.896;2024-02-15T04:26:10;0.30;;;0.30;;
1402;SDS011;696;48.546;9.896;2024-02-15T04:28:39;0.30;;;0.30;;
1402;SDS011;696;48.546;9.896;2024-02-15T04:31:06;0.30;;;0.30;;
1402;SDS011;696;48.546;9.896;2024-02-15T04:33:33;0.30;;;0.30;;
1402;SDS011;696;48.546;9.896;2024-02-15T04:35:59;0.20;;;0.20;;
1402;SDS011;696;48.546;9.896;2024-02-15T04:38:27;0.20;;;0.20;;
1402;SDS011;696;48.546;9.896;2024-02-15T04:40:53;0.30;;;0.30;;
1402;SDS011;696;48.546;9.896;2024-02-15T04:43:19;0.30;;;0.30;;
1402;SDS011;696;48.546;9.896;2024-02-15T04:45:45;0.20;;;0.20;;
1402;SDS011;696;48.546;9.896;2024-02-15T04:48:11;0.30;;;0.30;;
1402;SDS011;696;48.546;9.896;2024-02-15T04:50:38;0.30;;;0.30;;
1402;SDS011;696;48.546;9.896;2024-02-15T04:53:07;0.20;;;0.20;;
1402;SDS011;696;48.546;9.896;2024-02-15T04:55:33;0.30;;;0.30;;
1402;SDS011;696;48.546;9.896;2024-02-15T04:58:00;0.30;;;0.30;;
1402;SDS011;696;48.546;9.896;2024-02-15T05:00:27;0.30;;;0.30;;
1402;SDS011;696;48.546;9.896;2024-02-15T05:02:53;0.30;;;0.30;;
1402;SDS011;696;48.546;9.896;2024-02-15T05:05:19;0.28;;;0.28;;
1402;SDS011;696;48.546;9.896;2024-02-15T05:07:44;0.30;;;0.30;;
1402;SDS011;696;48.546;9.896;2024-02-15T05:10:10;0.20;;;0.20;;
1402;SDS011;696;48.546;9.896;2024-02-15T05:12:37;0.20;;;0.20;;
1402;SDS011;696;48.546;9.896;2024-02-15T05:15:02;0.30;;;0.30;;
1402;SDS011;696;48.546;9.896;2024-02-15T05:17:35;0.30;;;0.30;;
1402;SDS011;696;48.546;9.896;2024-02-15T05:20:06;0.30;;;0.30;;
1402;SDS011;696;48.546;9.896;2024-02-15T05:22:36;0.20;;;0.20;;
1402;SDS011;696;48.546;9.896;2024-02-15T05:25:01;0.30;;;0.30;;
1402;SDS011;696;48.546;9.896;2024-02-15T05:27:27;0.30;;;0.30;;
1402;SDS011;696;48.546;9.896;2024-02-15T05:29:52;0.25;;;0.25;;
1402;SDS011;696;48.546;9.896;2024-02-15T05:32:17;0.30;;;0.30;;
1402;SDS011;696;48.546;9.896;2024-02-15T05:34:45;0.30;;;0.30;;
1402;SDS011;696;48.546;9.896;2024-02-15T05:37:11;0.20;;;0.20;;
1402;SDS011;696;48.546;9.896;2024-02-15T05:39:37;0.30;;;0.30;;
1402;SDS011;696;48.546;9.896;2024-02-15T05:42:02;0.30;;;0.30;;
1402;SDS011;696;48.546;9.896;2024-02-15T05:44:28;0.30;;;0.30;;
1402;SDS011;696;48.546;9.896;2024-02-15T05:46:53;0.20;;;0.20;;
1402;SDS011;696;48.546;9.896;2024-02-15T05:49:18;0.30;;;0.30;;
1402;SDS011;696;48.546;9.896;2024-02-15T05:51:44;0.20;;;0.20;;
1402;SDS011;696;48.546;9.896;2024-02-15T05:54:10;0.30;;;0.30;;
1402;SDS011;696;48.546;9.896;2024-02-15T05:56:36;0.30;;;0.30;;
1402;SDS011;696;48.546;9.896;2024-02-15T05:59:01;0.40;;;0.40;;
1402;SDS011;696;48.546;9.896;2024-02-15T06:01:35;0.30;;;0.30;;
1402;SDS011;696;48.546;9.896;2024-02-15T06:04:00;0.30;;;0.30;;
1402;SDS011;696;48.546;9.896;2024-02-15T06:06:25;0.28;;;0.28;;
1402;SDS011;696;48.546;9.896;2024-02-15T06:08:51;0.30;;;0.30;;
1402;SDS011;696;48.546;9.896;2024-02-15T06:11:20;0.30;;;0.30;;
1402;SDS011;696;48.546;9.896;2024-02-15T06:13:45;0.30;;;0.30;;
1402;SDS011;696;48.546;9.896;2024-02-15T06:16:11;0.22;;;0.22;;
1402;SDS011;696;48.546;9.896;2024-02-15T06:18:36;0.25;;;0.25;;
1402;SDS011;696;48.546;9.896;2024-02-15T06:21:02;0.30;;;0.30;;
1402;SDS011;696;48.546;9.896;2024-02-15T06:23:28;0.30;;;0.30;;
1402;SDS011;696;48.546;9.896;2024-02-15T06:25:54;0.20;;;0.20;;
1402;SDS011;696;48.546;9.896;2024-02-15T06:28:23;0.30;;;0.30;;
1402;SDS011;696;48.546;9.896;2024-02-15T06:31:07;0.30;;;0.30;;
1402;SDS011;696;48.546;9.896;2024-02-15T06:33:51;0.30;;;0.30;;
1402;SDS011;696;48.546;9.896;2024-02-15T06:36:48;0.30;;;0.30;;
1402;SDS011;696;48.546;9.896;2024-02-15T06:39:33;0.30;;;0.30;;
1402;SDS011;696;48.546;9.896;2024-02-15T06:42:10;0.30;;;0.30;;
1402;SDS011;696;48.546;9.896;2024-02-15T06:44:45;0.30;;;0.30;;
1402;SDS011;696;48.546;9.896;2024-02-15T06:47:11;0.38;;;0.38;;
1402;SDS011;696;48.546;9.896;2024-02-15T06:49:37;0.30;;;0.30;;
1402;SDS011;696;48.546;9.896;2024-02-15T06:52:06;0.30;;;0.30;;
1402;SDS011;696;48.546;9.896;2024-02-15T06:54:35;0.30;;;0.30;;
1402;SDS011;696;48.546;9.896;2024-02-15T06:57:02;0.30;;;0.30;;
1402;SDS011;696;48.546;9.896;2024-02-15T06:59:29;0.30;;;0.30;;
1402;SDS011;696;48.546;9.896;2024-02-15T07:01:54;0.30;;;0.30;;
1402;SDS011;696;48.546;9.896;2024-02-15T07:04:20;0.30;;;0.30;;
1402;SDS011;696;48.546;9.896;2024-02-15T07:06:45;0.30;;;0.30;;
1402;SDS011;696;48.546;9.896;2024-02-15T07:09:12;0.30;;;0.30;;
1402;SDS011;696;48.546;9.896;2024-02-15T07:11:44;0.20;;;0.20;;
1402;SDS011;696;48.546;9.896;2024-02-15T07:14:11;0.30;;;0.30;;
1402;SDS011;696;48.546;9.896;2024-02-15T07:16:37;0.20;;;0.20;;
1402;SDS011;696;48.546;9.896;2024-02-15T07:19:03;0.30;;;0.30;;
1402;SDS011;696;48.546;9.896;2024-02-15T07:21:28;0.30;;;0.30;;
1402;SDS011;696;48.546;9.896;2024-02-15T07:23:54;0.30;;;0.30;;
1402;SDS011;696;48.546;9.896;2024-02-15T07:26:20;0.30;;;0.30;;
1402;SDS011;696;48.546;9.896;2024-02-15T07:28:58;0.30;;;0.30;;
1402;SDS011;696;48.546;9.896;2024-02-15T07:31:27;0.40;;;0.40;;
1402;SDS011;696;48.546;9.896;2024-02-15T07:33:53;0.35;;;0.35;;
1402;SDS011;696;48.546;9.896;2024-02-15T07:36:19;0.30;;;0.30;;
1402;SDS011;696;48.546;9.896;2024-02-15T07:38:46;0.25;;;0.25;;
1402;SDS011;696;48.546;9.896;2024-02-15T07:41:13;0.30;;;0.30;;
1402;SDS011;696;48.546;9.896;2024-02-15T07:43:51;0.30;;;0.30;;
1402;SDS011;696;48.546;9.896;2024-02-15T07:46:20;0.30;;;0.30;;
1402;SDS011;696;48.546;9.896;2024-02-15T07:48:46;0.30;;;0.30;;
1402;SDS011;696;48.546;9.896;2024-02-15T07:51:13;0.30;;;0.30;;
1402;SDS011;696;48.546;9.896;2024-02-15T07:53:40;0.20;;;0.20;;
1402;SDS011;696;48.546;9.896;2024-02-15T07:56:05;0.30;;;0.30;;
1402;SDS011;696;48.546;9.896;2024-02-15T07:58:31;0.30;;;0.30;;
1402;SDS011;696;48.546;9.896;2024-02-15T08:00:56;0.20;;;0.20;;
1402;SDS011;696;48.546;9.896;2024-02-15T08:03:22;0.30;;;0.30;;
1402;SDS011;696;48.546;9.896;2024-02-15T08:05:48;0.30;;;0.30;;
1402;SDS011;696;48.546;9.896;2024-02-15T08:08:13;0.20;;;0.20;;
1402;SDS011;696;48.546;9.896;2024-02-15T08:10:39;0.30;;;0.30;;
1402;SDS011;696;48.546;9.896;2024-02-15T08:13:04;0.20;;;0.20;;
1402;SDS011;696;48.546;9.896;2024-02-15T08:15:30;0.20;;;0.20;;
1402;SDS011;696;48.546;9.896;2024-02-15T08:17:55;0.30;;;0.30;;
1402;SDS011;696;48.546;9.896;2024-02-15T08:20:21;0.20;;;0.20;;
1402;SDS011;696;48.546;9.896;2024-02-15T08:22:47;0.30;;;0.30;;
1402;SDS011;696;48.546;9.896;2024-02-15T08:25:13;0.20;;;0.20;;
1402;SDS011;696;48.546;9.896;2024-02-15T08:27:41;0.20;;;0.20;;
1402;SDS011;696;48.546;9.896;2024-02-15T08:30:10;0.20;;;0.20;;
1402;SDS011;696;48.546;9.896;2024-02-15T08:32:37;0.20;;;0.20;;
1402;SDS011;696;48.546;9.896;2024-02-15T08:35:04;0.20;;;0.20;;
1402;SDS011;696;48.546;9.896;2024-02-15T08:37:33;0.20;;;0.20;;
1402;SDS011;696;48.546;9.896;2024-02-15T08:40:00;0.20;;;0.20;;
1402;SDS011;696;48.546;9.896;2024-02-15T08:42:25;0.22;;;0.22;;
1402;SDS011;696;48.546;9.896;2024-02-15T08:44:51;0.30;;;0.30;;
1402;SDS011;696;48.546;9.896;2024-02-15T08:47:17;0.20;;;0.20;;
1402;SDS011;696;48.546;9.896;2024-02-15T08:49:42;0.20;;;0.20;;
1402;SDS011;696;48.546;9.896;2024-02-15T08:52:07;0.20;;;0.20;;
1402;SDS011;696;48.546;9.896;2024-02-15T08:54:33;0.20;;;0.20;;
1402;SDS011;696;48.546;9.896;2024-02-15T08:56:59;0.20;;;0.20;;
1402;SDS011;696;48.546;9.896;2024-02-15T08:59:26;0.20;;;0.20;;
1402;SDS011;696;48.546;9.896;2024-02-15T09:01:53;0.20;;;0.20;;
1402;SDS011;696;48.546;9.896;2024-02-15T09:04:19;0.20;;;0.20;;
1402;SDS011;696;48.546;9.896;2024-02-15T09:06:46;0.20;;;0.20;;
1402;SDS011;696;48.546;9.896;2024-02-15T09:09:11;0.20;;;0.20;;
1402;SDS011;696;48.546;9.896;2024-02-15T09:11:36;0.20;;;0.20;;
1402;SDS011;696;48.546;9.896;2024-02-15T09:14:02;0.20;;;0.20;;
1402;SDS011;696;48.546;9.896;2024-02-15T09:16:27;0.20;;;0.20;;
1402;SDS011;696;48.546;9.896;2024-02-15T09:18:53;0.10;;;0.10;;
1402;SDS011;696;48.546;9.896;2024-02-15T09:21:18;0.20;;;0.20;;
1402;SDS011;696;48.546;9.896;2024-02-15T09:23:44;0.10;;;0.10;;
1402;SDS011;696;48.546;9.896;2024-02-15T09:26:09;0.20;;;0.20;;
1402;SDS011;696;48.546;9.896;2024-02-15T09:28:35;0.17;;;0.17;;
1402;SDS011;696;48.546;9.896;2024-02-15T09:31:00;0.10;;;0.10;;
1402;SDS011;696;48.546;9.896;2024-02-15T09:33:26;0.20;;;0.20;;
1402;SDS011;696;48.546;9.896;2024-02-15T09:35:52;0.10;;;0.10;;
1402;SDS011;696;48.546;9.896;2024-02-15T09:38:20;0.10;;;0.10;;
1402;SDS011;696;48.546;9.896;2024-02-15T09:40:48;0.20;;;0.20;;
1402;SDS011;696;48.546;9.896;2024-02-15T09:43:14;0.10;;;0.10;;
1402;SDS011;696;48.546;9.896;2024-02-15T09:45:40;0.13;;;0.13;;
1402;SDS011;696;48.546;9.896;2024-02-15T09:48:05;0.10;;;0.10;;
1402;SDS011;696;48.546;9.896;2024-02-15T09:50:34;0.13;;;0.13;;
1402;SDS011;696;48.546;9.896;2024-02-15T09:53:00;0.13;;;0.13;;
1402;SDS011;696;48.546;9.896;2024-02-15T09:55:27;0.13;;;0.13;;
1402;SDS011;696;48.546;9.896;2024-02-15T09:57:53;0.20;;;0.20;;
1402;SDS011;696;48.546;9.896;2024-02-15T10:00:19;0.10;;;0.10;;
1402;SDS011;696;48.546;9.896;2024-02-15T10:02:52;0.10;;;0.10;;
1402;SDS011;696;48.546;9.896;2024-02-15T10:05:18;0.20;;;0.20;;
1402;SDS011;696;48.546;9.896;2024-02-15T10:07:44;0.10;;;0.10;;
1402;SDS011;696;48.546;9.896;2024-02-15T10:10:20;0.10;;;0.10;;
1402;SDS011;696;48.546;9.896;2024-02-15T10:12:50;0.20;;;0.20;;
1402;SDS011;696;48.546;9.896;2024-02-15T10:17:55;0.10;;;0.10;;
1402;SDS011;696;48.546;9.896;2024-02-15T10:20:21;0.10;;;0.10;;
1402;SDS011;696;48.546;9.896;2024-02-15T10:22:51;0.10;;;0.10;;
1402;SDS011;696;48.546;9.896;2024-02-15T10:25:33;0.10;;;0.10;;
1402;SDS011;696;48.546;9.896;2024-02-15T10:28:02;0.13;;;0.13;;
1402;SDS011;696;48.546;9.896;2024-02-15T10:30:32;0.20;;;0.20;;
1402;SDS011;696;48.546;9.896;2024-02-15T10:32:58;0.20;;;0.20;;
1402;SDS011;696;48.546;9.896;2024-02-15T10:35:24;0.10;;;0.10;;
1402;SDS011;696;48.546;9.896;2024-02-15T10:37:49;0.10;;;0.10;;
1402;SDS011;696;48.546;9.896;2024-02-15T10:40:18;0.20;;;0.20;;
1402;SDS011;696;48.546;9.896;2024-02-15T10:42:47;0.13;;;0.13;;
1402;SDS011;696;48.546;9.896;2024-02-15T10:45:14;0.10;;;0.10;;
1402;SDS011;696;48.546;9.896;2024-02-15T10:47:42;0.10;;;0.10;;
1402;SDS011;696;48.546;9.896;2024-02-15T10:50:09;0.10;;;0.10;;
1402;SDS011;696;48.546;9.896;2024-02-15T10:52:36;0.10;;;0.10;;
1402;SDS011;696;48.546;9.896;2024-02-15T10:55:05;0.20;;;0.20;;
1402;SDS011;696;48.546;9.896;2024-02-15T10:57:39;0.10;;;0.10;;
1402;SDS011;696;48.546;9.896;2024-02-15T11:00:05;0.20;;;0.20;;
1402;SDS011;696;48.546;9.896;2024-02-15T11:02:39;0.17;;;0.17;;
1402;SDS011;696;48.546;9.896;2024-02-15T11:05:08;0.20;;;0.20;;
1402;SDS011;696;48.546;9.896;2024-02-15T11:07:35;0.20;;;0.20;;
1402;SDS011;696;48.546;9.896;2024-02-15T11:10:01;0.10;;;0.10;;
1402;SDS011;696;48.546;9.896;2024-02-15T11:12:29;0.20;;;0.20;;
1402;SDS011;696;48.546;9.896;2024-02-15T11:14:56;0.10;;;0.10;;
1402;SDS011;696;48.546;9.896;2024-02-15T11:20:02;0.10;;;0.10;;
1402;SDS011;696;48.546;9.896;2024-02-15T11:22:33;0.10;;;0.10;;
1402;SDS011;696;48.546;9.896;2024-02-15T11:25:02;0.10;;;0.10;;
1402;SDS011;696;48.546;9.896;2024-02-15T11:27:41;0.10;;;0.10;;
1402;SDS011;696;48.546;9.896;2024-02-15T11:30:07;0.10;;;0.10;;
1402;SDS011;696;48.546;9.896;2024-02-15T11:35:12;0.10;;;0.10;;
1402;SDS011;696;48.546;9.896;2024-02-15T11:40:12;0.10;;;0.10;;
1402;SDS011;696;48.546;9.896;2024-02-15T11:42:38;0.10;;;0.10;;
1402;SDS011;696;48.546;9.896;2024-02-15T11:45:05;0.10;;;0.10;;
1402;SDS011;696;48.546;9.896;2024-02-15T11:47:36;0.20;;;0.20;;
1402;SDS011;696;48.546;9.896;2024-02-15T11:50:04;0.10;;;0.10;;
1402;SDS011;696;48.546;9.896;2024-02-15T11:52:33;0.10;;;0.10;;
1402;SDS011;696;48.546;9.896;2024-02-15T11:55:05;0.10;;;0.10;;
1402;SDS011;696;48.546;9.896;2024-02-15T11:57:35;0.10;;;0.10;;
1402;SDS011;696;48.546;9.896;2024-02-15T12:00:25;0.10;;;0.10;;
1402;SDS011;696;48.546;9.896;2024-02-15T12:03:09;0.10;;;0.10;;
1402;SDS011;696;48.546;9.896;2024-02-15T12:05:57;0.20;;;0.20;;
1402;SDS011;696;48.546;9.896;2024-02-15T12:08:47;0.10;;;0.10;;
1402;SDS011;696;48.546;9.896;2024-02-15T12:11:32;0.10;;;0.10;;
1402;SDS011;696;48.546;9.896;2024-02-15T12:14:16;0.10;;;0.10;;
1402;SDS011;696;48.546;9.896;2024-02-15T12:17:07;0.10;;;0.10;;
1402;SDS011;696;48.546;9.896;2024-02-15T12:20:01;0.10;;;0.10;;
1402;SDS011;696;48.546;9.896;2024-02-15T12:22:34;0.10;;;0.10;;
1402;SDS011;696;48.546;9.896;2024-02-15T12:25:05;0.10;;;0.10;;
1402;SDS011;696;48.546;9.896;2024-02-15T12:27:39;0.10;;;0.10;;
1402;SDS011;696;48.546;9.896;2024-02-15T12:30:08;0.10;;;0.10;;
1402;SDS011;696;48.546;9.896;2024-02-15T12:32:38;0.10;;;0.10;;
1402;SDS011;696;48.546;9.896;2024-02-15T12:40:29;0.10;;;0.10;;
1402;SDS011;696;48.546;9.896;2024-02-15T12:42:58;0.00;;;0.00;;
1402;SDS011;696;48.546;9.896;2024-02-15T12:45:25;0.10;;;0.10;;
1402;SDS011;696;48.546;9.896;2024-02-15T12:47:53;0.00;;;0.00;;
1402;SDS011;696;48.546;9.896;2024-02-15T12:50:22;0.00;;;0.00;;
1402;SDS011;696;48.546;9.896;2024-02-15T12:52:49;0.00;;;0.00;;
1402;SDS011;696;48.546;9.896;2024-02-15T12:55:19;0.10;;;0.10;;
1402;SDS011;696;48.546;9.896;2024-02-15T12:57:47;0.00;;;0.00;;
1402;SDS011;696;48.546;9.896;2024-02-15T13:00:19;0.10;;;0.10;;
1402;SDS011;696;48.546;9.896;2024-02-15T13:02:49;0.00;;;0.00;;
1402;SDS011;696;48.546;9.896;2024-02-15T13:05:19;0.00;;;0.00;;
1402;SDS011;696;48.546;9.896;2024-02-15T13:07:51;0.00;;;0.00;;
1402;SDS011;696;48.546;9.896;2024-02-15T13:10:17;0.00;;;0.00;;
1402;SDS011;696;48.546;9.896;2024-02-15T13:12:43;0.00;;;0.00;;
1402;SDS011;696;48.546;9.896;2024-02-15T13:15:10;0.00;;;0.00;;
1402;SDS011;696;48.546;9.896;2024-02-15T13:17:40;0.00;;;0.00;;
1402;SDS011;696;48.546;9.896;2024-02-15T13:20:08;0.00;;;0.00;;
1402;SDS011;696;48.546;9.896;2024-02-15T13:22:36;0.10;;;0.10;;
1402;SDS011;696;48.546;9.896;2024-02-15T13:25:03;0.00;;;0.00;;
1402;SDS011;696;48.546;9.896;2024-02-15T13:27:29;0.00;;;0.00;;
1402;SDS011;696;48.546;9.896;2024-02-15T13:29:54;0.10;;;0.10;;
1402;SDS011;696;48.546;9.896;2024-02-15T13:32:20;0.00;;;0.00;;
1402;SDS011;696;48.546;9.896;2024-02-15T13:34:47;0.00;;;0.00;;
1402;SDS011;696;48.546;9.896;2024-02-15T13:37:16;0.00;;;0.00;;
1402;SDS011;696;48.546;9.896;2024-02-15T13:39:45;0.00;;;0.00;;
1402;SDS011;696;48.546;9.896;2024-02-15T13:42:14;0.00;;;0.00;;
1402;SDS011;696;48.546;9.896;2024-02-15T13:44:40;0.10;;;0.10;;
1402;SDS011;696;48.546;9.896;2024-02-15T13:47:05;0.10;;;0.10;;
1402;SDS011;696;48.546;9.896;2024-02-15T13:49:30;0.00;;;0.00;;
1402;SDS011;696;48.546;9.896;2024-02-15T13:51:57;0.10;;;0.10;;
1402;SDS011;696;48.546;9.896;2024-02-15T13:54:27;0.05;;;0.05;;
1402;SDS011;696;48.546;9.896;2024-02-15T13:56:53;0.03;;;0.03;;
1402;SDS011;696;48.546;9.896;2024-02-15T13:59:18;0.10;;;0.10;;
1402;SDS011;696;48.546;9.896;2024-02-15T14:01:44;0.00;;;0.00;;
1402;SDS011;696;48.546;9.896;2024-02-15T14:04:10;0.10;;;0.10;;
1402;SDS011;696;48.546;9.896;2024-02-15T14:06:36;0.00;;;0.00;;
1402;SDS011;696;48.546;9.896;2024-02-15T14:09:05;0.00;;;0.00;;
1402;SDS011;696;48.546;9.896;2024-02-15T14:11:36;0.00;;;0.00;;
1402;SDS011;696;48.546;9.896;2024-02-15T14:14:02;0.00;;;0.00;;
1402;SDS011;696;48.546;9.896;2024-02-15T14:16:28;0.10;;;0.10;;
1402;SDS011;696;48.546;9.896;2024-02-15T14:18:54;0.03;;;0.03;;
1402;SDS011;696;48.546;9.896;2024-02-15T14:21:20;0.10;;;0.10;;
1402;SDS011;696;48.546;9.896;2024-02-15T14:23:45;0.10;;;0.10;;
1402;SDS011;696;48.546;9.896;2024-02-15T14:26:11;0.10;;;0.10;;
1402;SDS011;696;48.546;9.896;2024-02-15T14:28:36;0.10;;;0.10;;
1402;SDS011;696;48.546;9.896;2024-02-15T14:31:04;0.10;;;0.10;;
1402;SDS011;696;48.546;9.896;2024-02-15T14:33:48;0.10;;;0.10;;
1402;SDS011;696;48.546;9.896;2024-02-15T14:36:15;0.10;;;0.10;;
1402;SDS011;696;48.546;9.896;2024-02-15T14:38:42;0.10;;;0.10;;
1402;SDS011;696;48.546;9.896;2024-02-15T14:41:09;0.10;;;0.10;;
1402;SDS011;696;48.546;9.896;2024-02-15T14:43:35;0.10;;;0.10;;
1402;SDS011;696;48.546;9.896;2024-02-15T14:46:01;0.10;;;0.10;;
1402;SDS011;696;48.546;9.896;2024-02-15T14:48:30;0.10;;;0.10;;
1402;SDS011;696;48.546;9.896;2024-02-15T14:50:56;0.10;;;0.10;;
1402;SDS011;696;48.546;9.896;2024-02-15T14:53:22;0.10;;;0.10;;
1402;SDS011;696;48.546;9.896;2024-02-15T14:55:48;0.10;;;0.10;;
1402;SDS011;696;48.546;9.896;2024-02-15T14:58:15;0.10;;;0.10;;
1402;SDS011;696;48.546;9.896;2024-02-15T15:00:41;0.10;;;0.10;;
1402;SDS011;696;48.546;9.896;2024-02-15T15:03:08;0.10;;;0.10;;
1402;SDS011;696;48.546;9.896;2024-02-15T15:05:34;0.00;;;0.00;;
1402;SDS011;696;48.546;9.896;2024-02-15T15:08:18;0.10;;;0.10;;
1402;SDS011;696;48.546;9.896;2024-02-15T15:11:02;0.00;;;0.00;;
1402;SDS011;696;48.546;9.896;2024-02-15T15:14:02;0.10;;;0.10;;
1402;SDS011;696;48.546;9.896;2024-02-15T15:16:29;0.00;;;0.00;;
1402;SDS011;696;48.546;9.896;2024-02-15T15:18:55;0.10;;;0.10;;
1402;SDS011;696;48.546;9.896;2024-02-15T15:21:21;0.10;;;0.10;;
1402;SDS011;696;48.546;9.896;2024-02-15T15:23:48;0.10;;;0.10;;
1402;SDS011;696;48.546;9.896;2024-02-15T15:26:18;0.20;;;0.20;;
1402;SDS011;696;48.546;9.896;2024-02-15T15:28:44;0.10;;;0.10;;
1402;SDS011;696;48.546;9.896;2024-02-15T15:31:10;0.10;;;0.10;;
1402;SDS011;696;48.546;9.896;2024-02-15T15:33:35;0.08;;;0.08;;
1402;SDS011;696;48.546;9.896;2024-02-15T15:36:01;0.10;;;0.10;;
1402;SDS011;696;48.546;9.896;2024-02-15T15:38:28;0.10;;;0.10;;
1402;SDS011;696;48.546;9.896;2024-02-15T15:40:54;0.10;;;0.10;;
1402;SDS011;696;48.546;9.896;2024-02-15T15:43:19;0.10;;;0.10;;
1402;SDS011;696;48.546;9.896;2024-02-15T15:45:45;0.10;;;0.10;;
1402;SDS011;696;48.546;9.896;2024-02-15T15:48:12;0.10;;;0.10;;